This is the latest recevied weather packets stored in our database for station/object VK2BOS. If no packets are shown the sender has not sent any weather packets the latest 10 day(s).
| Time | Temp. | Humidity | Pressure | Rain* | Wind** | Luminosity | Snow |
|---|---|---|---|---|---|---|---|
| 1777432204 | 23.89° C | 62% | 1024.9 hPa | 0 mm | - | 86 W/m² | - |
| 1777427404 | 22.78° C | 68% | 1025.9 hPa | 0 mm | - | 601 W/m² | - |
| 1777426936 | 23.33° C | 67% | 1025.9 hPa | 0 mm | - | 691 W/m² | - |
| 1777425604 | 22.78° C | 69% | 1026.1 hPa | 0 mm | - | 694 W/m² | - |
| 1777424403 | 12.22° C | 94% | 1026.2 hPa | 0 mm | - | 0 W/m² | - |
| 1777420204 | 12.22° C | 94% | 1026.4 hPa | 0 mm | - | 0 W/m² | - |
| 1777407604 | 12.22° C | 94% | 1024.3 hPa | 0 mm | - | 0 W/m² | - |
| 1777403404 | 12.22° C | 94% | 1023.8 hPa | 0 mm | - | 0 W/m² | - |
| 1777401004 | 12.22° C | 94% | 1023.6 hPa | 0 mm | - | 0 W/m² | - |
| 1777399204 | 12.22° C | 94% | 1023.2 hPa | 0 mm | - | 0 W/m² | - |
| 1777398735 | 12.22° C | 94% | 1023.2 hPa | 0 mm | - | 0 W/m² | - |
| 1777398006 | 12.22° C | 94% | 1023.1 hPa | 0 mm | - | 0 W/m² | - |
| 1777397404 | 12.22° C | 94% | 1023.1 hPa | 0 mm | - | 0 W/m² | - |
| 1777387804 | 12.78° C | 92% | 1023.5 hPa | 0 mm | - | 0 W/m² | - |
| 1777387203 | 12.78° C | 92% | 1023.3 hPa | 0 mm | - | 0 W/m² | - |
| 1777383604 | 12.78° C | 92% | 1023.4 hPa | 0 mm | - | 0 W/m² | - |
| 1777381204 | 13.33° C | 91% | 1023.7 hPa | 0 mm | - | 0 W/m² | - |
| 1777378803 | 13.33° C | 90% | 1023.8 hPa | 0 mm | - | 0 W/m² | - |
| 1777378204 | 13.33° C | 90% | 1023.8 hPa | 0 mm | - | 0 W/m² | - |
| 1777373404 | 15° C | 88% | 1023.7 hPa | 0 mm | - | 0 W/m² | - |
| 1777372204 | 15° C | 86% | 1023.7 hPa | 0 mm | - | 0 W/m² | - |
| 1777368004 | 17.22° C | 78% | 1023.2 hPa | 0 mm | - | 0 W/m² | - |
| 1777367403 | 17.78° C | 79% | 1023.1 hPa | 0 mm | - | 0 W/m² | - |
| 1777365004 | 18.33° C | 75% | 1022.7 hPa | 0 mm | - | 0 W/m² | - |
| 1777364404 | 18.89° C | 74% | 1022.6 hPa | 0 mm | - | 0 W/m² | - |
* Rain latest hour (hover to see other rain measurements)
** Current wind speed in m/s (hover to see current wind gust speed)